Terminal Aerodrome Forecast
Issued by NWS

Home | Current Version | Previous Version | Text Only | Print | Product List | Glossary Off
Versions: 1 2 3 4 5 6 7 8 9 10 11 12 13 14

000
FTUS43 KPAH 030520
TAFCGI
TAF
KCGI 030520Z 0306/0406 16005KT P6SM SCT100
     FM031500 20010G15KT P6SM SCT100
     FM040000 18007KT P6SM SCT250=

USA.gov is the U.S. government's official web portal to all federal, state and local government web resources and services.